createdAt,value
2018-07-06T00:00:27.916Z,99.99
2018-07-06T00:01:27.699Z,99.99
2018-07-06T00:02:27.717Z,99.99
2018-07-06T00:03:27.715Z,99.99
2018-07-06T00:04:27.716Z,99.99
2018-07-06T00:05:27.908Z,99.99
2018-07-06T00:06:27.728Z,99.99
2018-07-06T00:07:27.714Z,99.99
2018-07-06T00:08:27.715Z,99.99
2018-07-06T00:09:27.717Z,99.99
2018-07-06T00:10:27.720Z,99.99
2018-07-06T00:11:27.723Z,99.99
2018-07-06T00:12:27.811Z,99.99
2018-07-06T00:13:27.729Z,99.99
2018-07-06T00:14:27.745Z,99.99
2018-07-06T00:15:27.935Z,99.99
2018-07-06T00:16:27.766Z,99.99
2018-07-06T00:17:27.958Z,99.99
2018-07-06T00:18:27.742Z,99.99
2018-07-06T00:19:27.744Z,99.99
2018-07-06T00:20:27.751Z,99.99
2018-07-06T00:21:27.750Z,99.99
2018-07-06T00:22:27.754Z,99.99
2018-07-06T00:23:27.761Z,99.99
2018-07-06T00:24:27.774Z,99.99
2018-07-06T00:25:27.762Z,99.99
2018-07-06T00:26:27.778Z,99.99
2018-07-06T00:27:27.766Z,99.99
2018-07-06T00:28:27.769Z,99.99
2018-07-06T00:29:27.783Z,99.99
2018-07-06T00:30:27.779Z,99.99
2018-07-06T00:31:27.780Z,99.99
2018-07-06T00:32:27.794Z,99.99
2018-07-06T00:33:27.790Z,99.99
2018-07-06T00:34:27.988Z,99.99
2018-07-06T00:35:28.000Z,99.99
2018-07-06T00:36:27.791Z,99.99
2018-07-06T00:37:27.794Z,99.99
2018-07-06T00:38:27.799Z,99.99
2018-07-06T00:39:27.799Z,99.99
2018-07-06T00:40:27.815Z,99.99
2018-07-06T00:41:27.803Z,99.99
2018-07-06T00:42:28.018Z,99.99
2018-07-06T00:43:28.016Z,99.99
2018-07-06T00:44:27.826Z,99.99
2018-07-06T00:45:27.816Z,99.99
2018-07-06T00:46:27.816Z,99.99
2018-07-06T00:47:27.819Z,99.99
2018-07-06T00:48:28.038Z,99.99
2018-07-06T00:49:27.833Z,99.99
2018-07-06T00:50:27.830Z,99.99
2018-07-06T00:51:27.833Z,99.99
2018-07-06T00:52:27.843Z,99.99
2018-07-06T00:53:27.849Z,99.99
2018-07-06T00:54:27.849Z,99.99
2018-07-06T00:55:27.842Z,99.99
2018-07-06T00:56:27.850Z,99.99
2018-07-06T00:57:27.847Z,99.99
2018-07-06T00:58:27.851Z,99.99
2018-07-06T00:59:27.851Z,99.99
2018-07-06T01:00:28.057Z,99.99
2018-07-06T01:01:27.911Z,99.99
2018-07-06T01:02:28.077Z,99.99
2018-07-06T01:03:27.874Z,99.99
2018-07-06T01:04:27.891Z,99.99
2018-07-06T01:05:27.880Z,99.99
2018-07-06T01:06:27.874Z,99.99
2018-07-06T01:07:27.885Z,99.99
2018-07-06T01:08:27.877Z,99.99
2018-07-06T01:09:27.876Z,99.99
2018-07-06T01:10:27.897Z,99.99
2018-07-06T01:11:27.885Z,99.99
2018-07-06T01:12:27.886Z,99.99
2018-07-06T01:13:28.089Z,99.99
2018-07-06T01:14:28.095Z,99.99
2018-07-06T01:15:27.891Z,99.99
2018-07-06T01:16:28.097Z,99.99
2018-07-06T01:17:28.119Z,99.99
2018-07-06T01:18:27.898Z,99.99
2018-07-06T01:19:27.902Z,99.99
2018-07-06T01:20:27.915Z,99.99
2018-07-06T01:21:27.920Z,99.99
2018-07-06T01:22:28.125Z,99.99
2018-07-06T01:23:27.922Z,99.99
2018-07-06T01:24:27.924Z,99.99
2018-07-06T01:25:27.915Z,99.99
2018-07-06T01:26:27.943Z,99.99
2018-07-06T01:27:27.923Z,99.99
2018-07-06T01:28:27.961Z,99.99
2018-07-06T01:29:28.129Z,99.99
2018-07-06T01:30:27.945Z,99.99
2018-07-06T01:31:27.956Z,99.99
2018-07-06T01:32:27.935Z,99.99
2018-07-06T01:33:27.936Z,99.99
2018-07-06T01:34:27.942Z,99.99
2018-07-06T01:35:27.949Z,99.99
2018-07-06T01:36:27.946Z,99.99
2018-07-06T01:37:27.948Z,99.99
2018-07-06T01:38:27.952Z,99.99
2018-07-06T01:39:27.951Z,99.99
2018-07-06T01:40:27.955Z,99.99
2018-07-06T01:41:28.170Z,99.99
2018-07-06T01:42:27.982Z,99.99
2018-07-06T01:43:27.963Z,99.99
2018-07-06T01:44:27.965Z,99.99
2018-07-06T01:45:27.980Z,99.99
2018-07-06T01:46:27.977Z,99.99
2018-07-06T01:47:27.984Z,99.99
2018-07-06T01:48:27.977Z,99.99
2018-07-06T01:49:27.975Z,99.99
2018-07-06T01:50:27.978Z,99.99
2018-07-06T01:51:27.982Z,99.99
2018-07-06T01:52:27.994Z,99.99
2018-07-06T01:53:28.184Z,99.99
2018-07-06T01:54:27.996Z,99.99
2018-07-06T01:55:27.988Z,99.99
2018-07-06T01:56:28.194Z,99.99
2018-07-06T01:57:28.195Z,99.99
2018-07-06T01:58:27.996Z,99.99
2018-07-06T01:59:27.995Z,99.99
2018-07-06T02:00:28.211Z,99.99
2018-07-06T02:01:27.998Z,99.99
2018-07-06T02:02:28.204Z,99.99
2018-07-06T02:03:28.004Z,99.99
2018-07-06T02:04:28.007Z,99.99
2018-07-06T02:05:28.006Z,99.99
2018-07-06T02:06:28.026Z,99.99
2018-07-06T02:07:28.021Z,99.99
2018-07-06T02:08:28.228Z,99.99
2018-07-06T02:09:28.013Z,99.99
2018-07-06T02:10:28.232Z,99.99
2018-07-06T02:11:28.019Z,99.99
2018-07-06T02:12:28.024Z,99.99
2018-07-06T02:13:28.034Z,99.99
2018-07-06T02:14:28.027Z,99.99
2018-07-06T02:15:28.027Z,99.99
2018-07-06T02:16:28.039Z,99.99
2018-07-06T02:17:28.032Z,99.99
2018-07-06T02:18:28.250Z,99.99
2018-07-06T02:19:28.036Z,99.99
2018-07-06T02:20:28.053Z,99.99
2018-07-06T02:21:28.042Z,99.99
2018-07-06T02:22:28.041Z,99.99
2018-07-06T02:23:28.246Z,99.99
2018-07-06T02:24:28.248Z,99.99
2018-07-06T02:25:28.047Z,99.99
2018-07-06T02:26:28.051Z,99.99
2018-07-06T02:27:28.266Z,99.99
2018-07-06T02:28:28.056Z,99.99
2018-07-06T02:29:28.257Z,99.99
2018-07-06T02:30:28.082Z,99.99
2018-07-06T02:31:28.076Z,99.99
2018-07-06T02:32:28.063Z,99.99
2018-07-06T02:33:28.277Z,99.99
2018-07-06T02:34:28.072Z,99.99
2018-07-06T02:35:28.084Z,99.99
2018-07-06T02:36:28.085Z,99.99
2018-07-06T02:37:28.281Z,99.99
2018-07-06T02:38:28.087Z,99.99
2018-07-06T02:39:28.086Z,99.99
2018-07-06T02:40:28.094Z,99.99
2018-07-06T02:41:28.110Z,99.99
2018-07-06T02:42:28.083Z,99.99
2018-07-06T02:43:28.087Z,99.99
2018-07-06T02:44:28.292Z,99.99
2018-07-06T02:45:28.123Z,99.99
2018-07-06T02:46:28.294Z,99.99
2018-07-06T02:47:28.113Z,99.99
2018-07-06T02:48:28.099Z,99.99
2018-07-06T02:49:28.108Z,99.99
2018-07-06T02:50:28.100Z,99.99
2018-07-06T02:51:28.102Z,99.99
2018-07-06T02:52:28.122Z,99.99
2018-07-06T02:53:28.325Z,99.99
2018-07-06T02:54:28.109Z,99.99
2018-07-06T02:55:28.340Z,99.99
2018-07-06T02:56:28.128Z,99.99
2018-07-06T02:57:28.115Z,99.99
2018-07-06T02:58:28.147Z,99.99
2018-07-06T02:59:28.321Z,99.99
2018-07-06T03:00:28.162Z,99.99
2018-07-06T03:01:28.125Z,99.99
2018-07-06T03:02:28.354Z,99.99
2018-07-06T03:03:28.136Z,99.99
2018-07-06T03:04:28.131Z,99.99
2018-07-06T03:05:28.345Z,99.99
2018-07-06T03:06:28.143Z,99.99
2018-07-06T03:07:28.138Z,99.99
2018-07-06T03:08:28.345Z,99.99
2018-07-06T03:09:28.141Z,99.99
2018-07-06T03:10:28.143Z,99.99
2018-07-06T03:11:28.366Z,99.99
2018-07-06T03:12:28.369Z,99.99
2018-07-06T03:13:28.153Z,99.99
2018-07-06T03:14:28.171Z,99.99
2018-07-06T03:15:28.372Z,99.99
2018-07-06T03:16:28.361Z,99.99
2018-07-06T03:17:28.162Z,99.99
2018-07-06T03:18:28.182Z,99.99
2018-07-06T03:19:28.168Z,99.99
2018-07-06T03:20:28.177Z,99.99
2018-07-06T03:21:28.371Z,99.99
2018-07-06T03:22:28.172Z,99.99
2018-07-06T03:23:28.381Z,99.99
2018-07-06T03:24:28.178Z,99.99
2018-07-06T03:25:28.207Z,99.99
2018-07-06T03:26:28.190Z,99.99
2018-07-06T03:27:28.388Z,99.99
2018-07-06T03:28:28.402Z,99.99
2018-07-06T03:29:28.188Z,99.99
2018-07-06T03:30:28.209Z,99.99
2018-07-06T03:31:28.464Z,99.99
2018-07-06T03:32:28.193Z,99.99
2018-07-06T03:33:28.196Z,99.99
2018-07-06T03:34:28.209Z,99.99
2018-07-06T03:35:28.217Z,99.99
2018-07-06T03:36:28.229Z,99.99
2018-07-06T03:37:28.205Z,99.99
2018-07-06T03:38:28.219Z,99.99
2018-07-06T03:39:28.209Z,99.99
2018-07-06T03:40:28.210Z,99.99
2018-07-06T03:41:28.427Z,99.99
2018-07-06T03:42:28.230Z,99.99
2018-07-06T03:43:28.446Z,99.99
2018-07-06T03:44:28.235Z,99.99
2018-07-06T03:45:28.235Z,99.99
2018-07-06T03:46:28.439Z,99.99
2018-07-06T03:47:28.227Z,99.99
2018-07-06T03:48:28.230Z,99.99
2018-07-06T03:49:28.234Z,99.99
2018-07-06T03:50:28.247Z,99.99
2018-07-06T03:51:28.247Z,99.99
2018-07-06T03:52:28.235Z,99.99
2018-07-06T03:53:28.451Z,99.99
2018-07-06T03:54:28.239Z,99.99
2018-07-06T03:55:28.458Z,99.99
2018-07-06T03:56:28.255Z,99.99
2018-07-06T03:57:28.245Z,99.99
2018-07-06T03:58:28.249Z,99.99
2018-07-06T03:59:28.249Z,99.99
2018-07-06T04:00:28.252Z,99.99
2018-07-06T04:01:28.268Z,99.99
2018-07-06T04:02:28.258Z,99.99
2018-07-06T04:03:28.488Z,99.99
2018-07-06T04:04:28.278Z,99.99
2018-07-06T04:05:28.261Z,99.99
2018-07-06T04:06:28.267Z,99.99
2018-07-06T04:07:28.282Z,99.99
2018-07-06T04:08:28.488Z,99.99
2018-07-06T04:09:28.272Z,99.99
2018-07-06T04:10:28.273Z,99.99
2018-07-06T04:11:28.274Z,99.99
2018-07-06T04:12:28.277Z,99.99
2018-07-06T04:13:28.306Z,99.99
2018-07-06T04:14:28.495Z,99.99
2018-07-06T04:15:28.300Z,99.99
2018-07-06T04:16:28.314Z,99.99
2018-07-06T04:17:28.287Z,99.99
2018-07-06T04:18:28.294Z,99.99
2018-07-06T04:19:28.302Z,99.99
2018-07-06T04:20:28.295Z,99.99
2018-07-06T04:21:28.305Z,99.99
2018-07-06T04:22:28.311Z,99.99
2018-07-06T04:23:28.502Z,99.99
2018-07-06T04:24:28.311Z,99.99
2018-07-06T04:25:28.517Z,99.99
2018-07-06T04:26:28.334Z,99.99
2018-07-06T04:27:28.328Z,99.99
2018-07-06T04:28:28.549Z,99.99
2018-07-06T04:29:28.523Z,99.99
2018-07-06T04:30:28.310Z,99.99
2018-07-06T04:31:28.530Z,99.99
2018-07-06T04:32:28.326Z,99.99
2018-07-06T04:33:28.328Z,99.99
2018-07-06T04:34:28.521Z,99.99
2018-07-06T04:35:28.522Z,99.99
2018-07-06T04:36:28.334Z,99.99
2018-07-06T04:37:28.324Z,99.99
2018-07-06T04:38:28.537Z,99.99
2018-07-06T04:39:28.530Z,99.99
2018-07-06T04:40:28.535Z,99.99
2018-07-06T04:41:28.329Z,99.99
2018-07-06T04:42:28.332Z,99.99
2018-07-06T04:43:28.362Z,99.99
2018-07-06T04:44:28.338Z,99.99
2018-07-06T04:45:28.551Z,99.99
2018-07-06T04:46:28.543Z,99.99
2018-07-06T04:47:28.341Z,99.99
2018-07-06T04:48:28.558Z,99.99
2018-07-06T04:49:28.345Z,99.99
2018-07-06T04:50:28.556Z,99.99
2018-07-06T04:51:28.358Z,99.99
2018-07-06T04:52:28.553Z,99.99
2018-07-06T04:53:28.555Z,99.99
2018-07-06T04:54:28.367Z,99.99
2018-07-06T04:55:28.580Z,99.99
2018-07-06T04:56:28.573Z,99.99
2018-07-06T04:57:28.369Z,99.99
2018-07-06T04:58:28.564Z,99.99
2018-07-06T04:59:28.365Z,99.99
2018-07-06T05:00:28.579Z,99.99
2018-07-06T05:01:28.569Z,99.99
2018-07-06T05:02:28.377Z,99.99
2018-07-06T05:03:28.373Z,99.99
2018-07-06T05:04:28.385Z,99.99
2018-07-06T05:05:28.397Z,99.99
2018-07-06T05:06:28.389Z,99.99
2018-07-06T05:07:28.583Z,99.99
2018-07-06T05:08:28.386Z,99.99
2018-07-06T05:09:28.591Z,99.99
2018-07-06T05:10:28.388Z,99.99
2018-07-06T05:11:28.391Z,99.99
2018-07-06T05:12:28.429Z,99.99
2018-07-06T05:13:28.387Z,99.99
2018-07-06T05:14:28.598Z,99.99
2018-07-06T05:15:28.421Z,99.99
2018-07-06T05:16:28.407Z,99.99
2018-07-06T05:17:28.403Z,99.99
2018-07-06T05:18:28.416Z,99.99
2018-07-06T05:19:28.404Z,99.99
2018-07-06T05:20:28.403Z,99.99
2018-07-06T05:21:28.408Z,99.99
2018-07-06T05:22:28.429Z,99.99
2018-07-06T05:23:28.410Z,99.99
2018-07-06T05:24:28.422Z,99.99
2018-07-06T05:25:28.424Z,99.99
2018-07-06T05:26:28.427Z,99.99
2018-07-06T05:27:28.415Z,99.99
2018-07-06T05:28:28.421Z,99.99
2018-07-06T05:29:28.625Z,99.99
2018-07-06T05:30:28.421Z,99.99
2018-07-06T05:31:28.422Z,99.99
2018-07-06T05:32:28.631Z,99.99
2018-07-06T05:33:28.451Z,99.99
2018-07-06T05:34:28.430Z,99.99
2018-07-06T05:35:28.442Z,99.99
2018-07-06T05:36:28.444Z,99.99
2018-07-06T05:37:28.435Z,99.99
2018-07-06T05:38:28.435Z,99.99
2018-07-06T05:39:28.439Z,99.99
2018-07-06T05:40:28.647Z,99.99
2018-07-06T05:41:28.439Z,99.99
2018-07-06T05:42:28.446Z,99.99
2018-07-06T05:43:28.646Z,99.99
2018-07-06T05:44:28.446Z,99.99
2018-07-06T05:45:28.447Z,99.99
2018-07-06T05:46:28.451Z,99.99
2018-07-06T05:47:28.448Z,99.99
2018-07-06T05:48:28.463Z,99.99
2018-07-06T05:49:28.474Z,99.99
2018-07-06T05:50:28.470Z,99.99
2018-07-06T05:51:28.672Z,99.99
2018-07-06T05:52:28.485Z,99.99
2018-07-06T05:53:28.665Z,99.99
2018-07-06T05:54:28.485Z,99.99
2018-07-06T05:55:28.664Z,99.99
2018-07-06T05:56:28.667Z,99.99
2018-07-06T05:57:28.499Z,99.99
2018-07-06T05:58:28.467Z,99.99
2018-07-06T05:59:28.484Z,99.99
2018-07-06T06:00:28.475Z,99.99
2018-07-06T06:01:28.483Z,99.99
2018-07-06T06:02:28.472Z,99.99
2018-07-06T06:03:28.677Z,99.99
2018-07-06T06:04:28.679Z,99.99
2018-07-06T06:05:28.684Z,99.99
2018-07-06T06:06:28.479Z,99.99
2018-07-06T06:07:28.480Z,99.99
2018-07-06T06:08:28.482Z,99.99
2018-07-06T06:09:28.496Z,99.99
2018-07-06T06:10:28.493Z,99.99
2018-07-06T06:11:28.485Z,99.99
2018-07-06T06:12:28.490Z,99.99
2018-07-06T06:13:28.696Z,99.99
2018-07-06T06:14:28.489Z,99.99
2018-07-06T06:15:28.698Z,99.99
2018-07-06T06:16:28.699Z,99.99
2018-07-06T06:17:28.510Z,99.99
2018-07-06T06:18:28.747Z,99.99
2018-07-06T06:19:28.499Z,99.99
2018-07-06T06:20:28.501Z,99.99
2018-07-06T06:21:28.504Z,99.99
2018-07-06T06:22:28.502Z,99.99
2018-07-06T06:23:28.709Z,99.99
2018-07-06T06:24:28.506Z,99.99
2018-07-06T06:25:28.510Z,99.99
2018-07-06T06:26:28.728Z,99.99
2018-07-06T06:27:28.719Z,99.99
2018-07-06T06:28:28.526Z,99.99
2018-07-06T06:29:28.532Z,99.99
2018-07-06T06:30:28.521Z,99.99
2018-07-06T06:31:28.529Z,99.99
2018-07-06T06:32:28.726Z,99.99
2018-07-06T06:33:28.923Z,99.99
2018-07-06T06:34:28.727Z,99.99
2018-07-06T06:35:28.544Z,99.99
2018-07-06T06:36:28.532Z,99.99
2018-07-06T06:37:28.545Z,99.99
2018-07-06T06:38:28.544Z,99.99
2018-07-06T06:39:28.807Z,99.99
2018-07-06T06:40:28.549Z,99.99
2018-07-06T06:41:28.550Z,99.99
2018-07-06T06:42:28.746Z,99.99
2018-07-06T06:43:28.545Z,99.99
2018-07-06T06:44:28.748Z,99.99
2018-07-06T06:45:28.763Z,99.99
2018-07-06T06:46:28.549Z,99.99
2018-07-06T06:47:28.757Z,99.99
2018-07-06T06:48:28.554Z,99.99
2018-07-06T06:49:28.778Z,99.99
2018-07-06T06:50:28.558Z,99.99
2018-07-06T06:51:28.583Z,99.99
2018-07-06T06:52:28.771Z,99.99
2018-07-06T06:53:28.765Z,99.99
2018-07-06T06:54:28.567Z,99.99
2018-07-06T06:55:28.568Z,99.99
2018-07-06T06:56:28.787Z,99.99
2018-07-06T06:57:28.788Z,99.99
2018-07-06T06:58:28.580Z,99.99
2018-07-06T06:59:28.577Z,99.99
2018-07-06T07:00:28.791Z,99.99
2018-07-06T07:01:28.582Z,99.99
2018-07-06T07:02:28.584Z,99.99
2018-07-06T07:03:28.790Z,99.99
2018-07-06T07:04:28.591Z,99.99
2018-07-06T07:05:28.591Z,99.99
2018-07-06T07:06:28.795Z,99.99
2018-07-06T07:07:28.701Z,99.99
2018-07-06T07:08:28.604Z,99.99
2018-07-06T07:09:28.804Z,99.99
2018-07-06T07:10:28.631Z,99.99
2018-07-06T07:11:28.605Z,99.99
2018-07-06T07:12:28.619Z,99.99
2018-07-06T07:13:28.615Z,99.99
2018-07-06T07:14:28.635Z,99.99
2018-07-06T07:15:28.629Z,99.99
2018-07-06T07:16:28.821Z,99.99
2018-07-06T07:17:28.632Z,99.99
2018-07-06T07:18:28.624Z,99.99
2018-07-06T07:19:28.826Z,99.99
2018-07-06T07:20:28.635Z,99.99
2018-07-06T07:21:28.632Z,99.99
2018-07-06T07:22:28.849Z,99.99
2018-07-06T07:23:28.833Z,99.99
2018-07-06T07:24:28.639Z,99.99
2018-07-06T07:25:28.636Z,99.99
2018-07-06T07:26:28.637Z,99.99
2018-07-06T07:27:28.643Z,99.99
2018-07-06T07:28:28.856Z,99.99
2018-07-06T07:29:28.647Z,99.99
2018-07-06T07:30:28.649Z,99.99
2018-07-06T07:31:28.653Z,99.99
2018-07-06T07:32:28.856Z,99.99
2018-07-06T07:33:28.900Z,99.99
2018-07-06T07:34:28.874Z,99.99
2018-07-06T07:35:28.864Z,99.99
2018-07-06T07:36:28.673Z,99.99
2018-07-06T07:37:28.866Z,99.99
2018-07-06T07:38:28.681Z,99.99
2018-07-06T07:39:28.668Z,99.99
2018-07-06T07:40:28.684Z,99.99
2018-07-06T07:41:28.673Z,99.99
2018-07-06T07:42:28.692Z,99.99
2018-07-06T07:43:28.682Z,99.99
2018-07-06T07:44:28.694Z,99.99
2018-07-06T07:45:28.901Z,99.99
2018-07-06T07:46:28.702Z,99.99
2018-07-06T07:47:28.894Z,99.99
2018-07-06T07:48:28.688Z,99.99
2018-07-06T07:49:28.894Z,99.99
2018-07-06T07:50:28.692Z,99.99
2018-07-06T07:51:28.701Z,99.99
2018-07-06T07:52:28.731Z,99.99
2018-07-06T07:53:28.714Z,99.99
2018-07-06T07:54:28.753Z,99.99
2018-07-06T07:55:28.719Z,99.99
2018-07-06T07:56:28.926Z,99.99
2018-07-06T07:57:28.724Z,99.99
2018-07-06T07:58:28.715Z,99.99
2018-07-06T07:59:28.716Z,99.99
2018-07-06T08:00:28.841Z,99.99
2018-07-06T08:01:28.728Z,99.99
2018-07-06T08:02:28.722Z,99.99
2018-07-06T08:03:28.736Z,99.99
2018-07-06T08:04:28.729Z,99.99
2018-07-06T08:05:28.734Z,99.99
2018-07-06T08:06:28.732Z,99.99
2018-07-06T08:07:28.950Z,99.99
2018-07-06T08:08:28.752Z,99.99
2018-07-06T08:09:28.941Z,99.99
2018-07-06T08:10:28.745Z,99.99
2018-07-06T08:11:28.743Z,99.99
2018-07-06T08:12:28.746Z,99.99
2018-07-06T08:13:28.759Z,99.99
2018-07-06T08:14:28.774Z,99.99
2018-07-06T08:15:28.957Z,99.99
2018-07-06T08:16:28.768Z,99.99
2018-07-06T08:17:28.757Z,99.99
2018-07-06T08:18:28.878Z,99.99
2018-07-06T08:19:28.765Z,99.99
2018-07-06T08:20:28.780Z,99.99
2018-07-06T08:21:28.781Z,99.99
2018-07-06T08:22:28.772Z,99.99
2018-07-06T08:23:28.777Z,99.99
2018-07-06T08:24:28.776Z,99.99
2018-07-06T08:25:28.795Z,99.99
2018-07-06T08:26:28.984Z,99.99
2018-07-06T08:27:28.985Z,99.99
2018-07-06T08:28:28.788Z,99.99
2018-07-06T08:29:28.993Z,99.99
2018-07-06T08:30:28.817Z,99.99
2018-07-06T08:31:28.843Z,99.99
2018-07-06T08:32:28.817Z,99.99
2018-07-06T08:33:29.008Z,99.99
2018-07-06T08:34:28.800Z,99.99
2018-07-06T08:35:28.823Z,99.99
2018-07-06T08:36:28.877Z,99.99
2018-07-06T08:37:28.809Z,99.99
2018-07-06T08:38:28.822Z,99.99
2018-07-06T08:39:29.080Z,99.99
2018-07-06T08:40:28.830Z,99.99
2018-07-06T08:41:28.834Z,99.99
2018-07-06T08:42:28.840Z,99.99
2018-07-06T08:43:28.823Z,99.99
2018-07-06T08:44:28.829Z,99.99
2018-07-06T08:45:28.829Z,99.99
2018-07-06T08:46:28.843Z,99.99
2018-07-06T08:47:29.074Z,99.99
2018-07-06T08:48:28.838Z,99.99
2018-07-06T08:49:28.840Z,99.99
2018-07-06T08:50:28.906Z,99.99
2018-07-06T08:51:28.873Z,99.99
2018-07-06T08:52:28.861Z,99.99
2018-07-06T08:53:29.063Z,99.99
2018-07-06T08:54:28.867Z,99.99
2018-07-06T08:55:29.085Z,99.99
2018-07-06T08:56:29.061Z,99.99
2018-07-06T08:57:28.873Z,99.99
2018-07-06T08:58:28.978Z,99.99
2018-07-06T08:59:28.867Z,99.99
2018-07-06T09:00:28.879Z,99.99
2018-07-06T09:01:28.882Z,99.99
2018-07-06T09:02:28.887Z,99.99
2018-07-06T09:03:29.077Z,99.99
2018-07-06T09:04:28.985Z,99.99
2018-07-06T09:05:28.879Z,99.99
2018-07-06T09:06:29.096Z,99.99
2018-07-06T09:07:29.093Z,99.99
2018-07-06T09:08:28.902Z,99.99
2018-07-06T09:09:28.952Z,99.99
2018-07-06T09:10:28.895Z,99.99
2018-07-06T09:11:28.909Z,99.99
2018-07-06T09:12:28.906Z,99.99
2018-07-06T09:13:28.901Z,99.99
2018-07-06T09:14:28.919Z,98.77
2018-07-06T09:15:29.126Z,99.99
2018-07-06T09:16:28.927Z,99.99
2018-07-06T09:17:28.914Z,99.99
2018-07-06T09:18:28.914Z,99.99
2018-07-06T09:19:29.045Z,99.99
2018-07-06T09:20:28.936Z,99.99
2018-07-06T09:21:29.140Z,99.99
2018-07-06T09:22:28.929Z,99.99
2018-07-06T09:23:28.932Z,99.99
2018-07-06T09:24:29.166Z,99.26
2018-07-06T09:25:29.007Z,97.62
2018-07-06T09:26:29.002Z,98.39
2018-07-06T09:27:29.146Z,98.58
2018-07-06T09:28:29.150Z,99.99
2018-07-06T09:29:28.970Z,99.99
2018-07-06T09:30:28.962Z,99.99
2018-07-06T09:31:28.974Z,99.99
2018-07-06T09:32:28.959Z,98.63
2018-07-06T09:33:28.962Z,98.24
2018-07-06T09:34:29.167Z,97.19
2018-07-06T09:35:29.171Z,94.87
2018-07-06T09:36:28.971Z,94.87
2018-07-06T09:37:28.976Z,95.55
2018-07-06T09:38:28.987Z,96.89
2018-07-06T09:39:28.979Z,95.26
2018-07-06T09:40:29.185Z,94.87
2018-07-06T09:41:28.990Z,93.91
2018-07-06T09:42:28.990Z,96.61
2018-07-06T09:43:29.202Z,98.54
2018-07-06T09:44:28.997Z,99.84
2018-07-06T09:45:29.202Z,97.09
2018-07-06T09:46:29.217Z,94.01
2018-07-06T09:47:29.006Z,93.72
2018-07-06T09:48:29.008Z,98.24
2018-07-06T09:49:29.012Z,97.76
2018-07-06T09:50:29.220Z,96.80
2018-07-06T09:51:29.018Z,96.99
2018-07-06T09:52:29.225Z,97.76
2018-07-06T09:53:29.024Z,97.14
2018-07-06T09:54:29.043Z,97.33
2018-07-06T09:55:29.033Z,97.62
2018-07-06T09:56:29.239Z,97.52
2018-07-06T09:57:29.038Z,95.98
2018-07-06T09:58:29.042Z,97.33
2018-07-06T09:59:29.045Z,95.89
2018-07-06T10:00:29.052Z,95.50
2018-07-06T10:01:29.052Z,95.60
2018-07-06T10:02:29.052Z,94.15
2018-07-06T10:03:29.263Z,95.55
2018-07-06T10:04:29.264Z,94.54
2018-07-06T10:05:29.063Z,94.10
2018-07-06T10:06:29.074Z,94.87
2018-07-06T10:07:29.272Z,95.07
2018-07-06T10:08:29.087Z,94.20
2018-07-06T10:09:29.288Z,93.04
2018-07-06T10:10:29.282Z,93.81
2018-07-06T10:11:29.083Z,96.03
2018-07-06T10:12:29.140Z,94.20
2018-07-06T10:13:29.099Z,94.87
2018-07-06T10:14:29.102Z,94.68
2018-07-06T10:15:29.095Z,95.26
2018-07-06T10:16:29.303Z,95.74
2018-07-06T10:17:29.103Z,93.24
2018-07-06T10:18:29.109Z,93.76
2018-07-06T10:19:29.162Z,94.15
2018-07-06T10:20:29.316Z,92.99
2018-07-06T10:21:29.323Z,94.06
2018-07-06T10:22:29.122Z,92.61
2018-07-06T10:23:29.124Z,93.43
2018-07-06T10:24:29.140Z,93.24
2018-07-06T10:25:29.134Z,93.14
2018-07-06T10:26:29.145Z,94.49
2018-07-06T10:27:29.225Z,94.20
2018-07-06T10:28:29.159Z,94.01
2018-07-06T10:29:29.149Z,92.56
2018-07-06T10:30:29.152Z,94.39
2018-07-06T10:31:29.153Z,95.98
2018-07-06T10:32:29.158Z,94.06
2018-07-06T10:33:29.387Z,91.16
2018-07-06T10:34:29.176Z,90.48
2018-07-06T10:35:29.181Z,89.19
2018-07-06T10:36:29.175Z,88.32
2018-07-06T10:37:29.189Z,90.92
2018-07-06T10:38:29.190Z,89.58
2018-07-06T10:39:29.247Z,87.98
2018-07-06T10:40:29.204Z,88.56
2018-07-06T10:41:29.410Z,89.72
2018-07-06T10:42:29.195Z,87.98
2018-07-06T10:43:29.199Z,86.73
2018-07-06T10:44:29.202Z,86.63
2018-07-06T10:45:29.207Z,87.79
2018-07-06T10:46:29.231Z,90.10
2018-07-06T10:47:29.428Z,91.26
2018-07-06T10:48:29.219Z,90.30
2018-07-06T10:49:29.222Z,91.36
2018-07-06T10:50:29.242Z,90.68
2018-07-06T10:51:29.256Z,92.51
2018-07-06T10:52:29.234Z,91.16
2018-07-06T10:53:29.237Z,88.56
2018-07-06T10:54:29.241Z,89.57
2018-07-06T10:55:29.252Z,89.09
2018-07-06T10:56:29.453Z,91.40
2018-07-06T10:57:29.257Z,89.67
2018-07-06T10:58:29.458Z,89.28
2018-07-06T10:59:29.267Z,89.18
2018-07-06T11:00:29.468Z,88.41
2018-07-06T11:01:29.269Z,88.12
2018-07-06T11:02:29.275Z,88.51
2018-07-06T11:03:29.277Z,89.18
2018-07-06T11:04:29.493Z,87.74
2018-07-06T11:05:29.297Z,88.51
2018-07-06T11:06:29.497Z,86.48
2018-07-06T11:07:29.293Z,86.00
2018-07-06T11:08:29.509Z,87.35
2018-07-06T11:09:29.502Z,86.87
2018-07-06T11:10:29.303Z,85.33
2018-07-06T11:11:29.348Z,83.92
2018-07-06T11:12:29.317Z,84.98
2018-07-06T11:13:29.319Z,84.11
2018-07-06T11:14:29.320Z,85.56
2018-07-06T11:15:29.328Z,84.41
2018-07-06T11:16:29.532Z,85.66
2018-07-06T11:17:29.533Z,85.08
2018-07-06T11:18:29.339Z,86.91
2018-07-06T11:19:29.544Z,86.24
2018-07-06T11:20:29.550Z,88.45
2018-07-06T11:21:29.550Z,85.66
2018-07-06T11:22:29.354Z,86.72
2018-07-06T11:23:29.359Z,85.17
2018-07-06T11:24:29.376Z,83.96
2018-07-06T11:25:29.388Z,84.64
2018-07-06T11:26:29.371Z,82.61
2018-07-06T11:27:29.374Z,83.48
2018-07-06T11:28:29.383Z,82.51
2018-07-06T11:29:29.381Z,83.25
2018-07-06T11:30:29.397Z,82.76
2018-07-06T11:31:29.390Z,82.61
2018-07-06T11:32:29.406Z,84.79
2018-07-06T11:33:29.600Z,83.00
2018-07-06T11:34:29.403Z,83.96
2018-07-06T11:35:29.421Z,83.48
2018-07-06T11:36:29.411Z,82.42
2018-07-06T11:37:29.442Z,82.13
2018-07-06T11:38:29.420Z,82.13
2018-07-06T11:39:29.427Z,83.53
2018-07-06T11:40:29.662Z,82.38
2018-07-06T11:41:29.447Z,83.44
2018-07-06T11:42:29.650Z,83.05
2018-07-06T11:43:29.443Z,82.48
2018-07-06T11:44:29.447Z,85.22
2018-07-06T11:45:29.450Z,83.39
2018-07-06T11:46:29.455Z,82.13
2018-07-06T11:47:29.457Z,82.61
2018-07-06T11:48:29.471Z,82.84
2018-07-06T11:49:29.468Z,80.05
2018-07-06T11:50:29.481Z,80.33
2018-07-06T11:51:29.483Z,81.20
2018-07-06T11:52:29.490Z,82.17
2018-07-06T11:53:29.484Z,81.11
2018-07-06T11:54:29.486Z,81.20
2018-07-06T11:55:29.729Z,80.91
2018-07-06T11:56:29.697Z,79.75
2018-07-06T11:57:29.498Z,80.82
2018-07-06T11:58:29.503Z,80.58
2018-07-06T11:59:29.508Z,81.20
2018-07-06T12:00:29.514Z,82.71
2018-07-06T12:01:29.517Z,83.52
2018-07-06T12:02:29.532Z,82.65
2018-07-06T12:03:29.524Z,81.53
2018-07-06T12:04:29.762Z,81.20
2018-07-06T12:05:29.536Z,80.43
2018-07-06T12:06:29.568Z,81.68
2018-07-06T12:07:29.547Z,81.63
2018-07-06T12:08:29.551Z,79.56
2018-07-06T12:09:29.767Z,78.59
2018-07-06T12:10:29.556Z,79.08
2018-07-06T12:11:29.560Z,80.24
2018-07-06T12:12:29.778Z,79.95
2018-07-06T12:13:29.570Z,80.14
2018-07-06T12:14:29.807Z,80.82
2018-07-06T12:15:29.586Z,79.47
2018-07-06T12:16:29.786Z,78.92
2018-07-06T12:17:29.585Z,77.73
2018-07-06T12:18:29.795Z,77.53
2018-07-06T12:19:29.596Z,78.41
2018-07-06T12:20:29.603Z,77.44
2018-07-06T12:21:29.723Z,76.67
2018-07-06T12:22:29.813Z,78.50
2018-07-06T12:23:29.615Z,79.31
2018-07-06T12:24:29.636Z,78.06
2018-07-06T12:25:29.626Z,77.61
2018-07-06T12:26:29.633Z,77.51
2018-07-06T12:27:29.850Z,75.29
2018-07-06T12:28:29.637Z,76.29
2018-07-06T12:29:29.645Z,74.52
2018-07-06T12:30:29.677Z,75.58
2018-07-06T12:31:29.867Z,75.58
2018-07-06T12:32:29.862Z,74.81
2018-07-06T12:33:29.686Z,75.78
2018-07-06T12:34:29.667Z,75.68
2018-07-06T12:35:29.876Z,75.78
2018-07-06T12:36:29.687Z,74.42
2018-07-06T12:37:29.885Z,73.84
2018-07-06T12:38:29.688Z,73.55
2018-07-06T12:39:29.916Z,73.16
2018-07-06T12:40:29.701Z,73.94
2018-07-06T12:41:29.762Z,72.88
2018-07-06T12:42:29.713Z,74.42
2018-07-06T12:43:29.709Z,75.48
2018-07-06T12:44:29.719Z,77.32
2018-07-06T12:45:29.733Z,76.93
2018-07-06T12:46:29.724Z,75.10
2018-07-06T12:47:29.728Z,73.49
2018-07-06T12:48:29.740Z,75.23
2018-07-06T12:49:29.737Z,75.71
2018-07-06T12:50:29.757Z,74.07
2018-07-06T12:51:29.745Z,74.46
2018-07-06T12:52:29.762Z,74.46